sensor_id;sensor_type;location;lat;lon;timestamp;temperature;humidity
29849;DHT22;16728;50.832;5.590;2023-12-20T00:02:53;8.20;99.90
29849;DHT22;16728;50.832;5.590;2023-12-20T00:05:56;8.20;99.90
29849;DHT22;16728;50.832;5.590;2023-12-20T00:08:58;8.10;99.90
29849;DHT22;16728;50.832;5.590;2023-12-20T00:12:00;8.10;99.90
29849;DHT22;16728;50.832;5.590;2023-12-20T00:15:02;7.90;99.90
29849;DHT22;16728;50.832;5.590;2023-12-20T00:18:04;7.90;99.90
29849;DHT22;16728;50.832;5.590;2023-12-20T00:21:06;7.80;99.90
29849;DHT22;16728;50.832;5.590;2023-12-20T00:24:08;7.70;99.90
29849;DHT22;16728;50.832;5.590;2023-12-20T00:27:10;7.70;99.90
29849;DHT22;16728;50.832;5.590;2023-12-20T00:30:12;7.70;99.90
29849;DHT22;16728;50.832;5.590;2023-12-20T00:33:13;7.70;99.90
29849;DHT22;16728;50.832;5.590;2023-12-20T00:36:16;7.60;99.90
29849;DHT22;16728;50.832;5.590;2023-12-20T00:39:18;7.50;99.90
29849;DHT22;16728;50.832;5.590;2023-12-20T00:42:20;7.50;99.90
29849;DHT22;16728;50.832;5.590;2023-12-20T00:45:21;7.50;99.90
29849;DHT22;16728;50.832;5.590;2023-12-20T00:48:23;7.40;99.90
29849;DHT22;16728;50.832;5.590;2023-12-20T00:51:25;7.40;99.90
29849;DHT22;16728;50.832;5.590;2023-12-20T00:54:27;7.40;99.90
29849;DHT22;16728;50.832;5.590;2023-12-20T00:57:31;7.40;99.90
29849;DHT22;16728;50.832;5.590;2023-12-20T01:00:33;7.40;99.90
29849;DHT22;16728;50.832;5.590;2023-12-20T01:03:35;7.30;99.90
29849;DHT22;16728;50.832;5.590;2023-12-20T01:06:38;7.30;99.90
29849;DHT22;16728;50.832;5.590;2023-12-20T01:09:40;7.30;99.90
29849;DHT22;16728;50.832;5.590;2023-12-20T01:12:43;7.30;99.90
29849;DHT22;16728;50.832;5.590;2023-12-20T01:15:45;7.30;99.90
29849;DHT22;16728;50.832;5.590;2023-12-20T01:18:47;7.30;99.90
29849;DHT22;16728;50.832;5.590;2023-12-20T01:21:49;7.30;99.90
29849;DHT22;16728;50.832;5.590;2023-12-20T01:24:50;7.20;99.90
29849;DHT22;16728;50.832;5.590;2023-12-20T01:27:52;7.20;99.90
29849;DHT22;16728;50.832;5.590;2023-12-20T01:30:54;7.30;99.90
29849;DHT22;16728;50.832;5.590;2023-12-20T01:33:57;7.20;99.90
29849;DHT22;16728;50.832;5.590;2023-12-20T01:36:58;7.10;99.90
29849;DHT22;16728;50.832;5.590;2023-12-20T01:40:01;7.20;99.90
29849;DHT22;16728;50.832;5.590;2023-12-20T01:43:08;7.20;99.90
29849;DHT22;16728;50.832;5.590;2023-12-20T01:46:10;7.10;99.90
29849;DHT22;16728;50.832;5.590;2023-12-20T01:49:14;7.10;99.90
29849;DHT22;16728;50.832;5.590;2023-12-20T01:52:16;7.10;99.90
29849;DHT22;16728;50.832;5.590;2023-12-20T01:55:20;7.10;99.90
29849;DHT22;16728;50.832;5.590;2023-12-20T01:58:23;7.10;99.90
29849;DHT22;16728;50.832;5.590;2023-12-20T02:01:25;7.10;99.90
29849;DHT22;16728;50.832;5.590;2023-12-20T02:04:30;7.00;99.90
29849;DHT22;16728;50.832;5.590;2023-12-20T02:07:32;7.00;99.90
29849;DHT22;16728;50.832;5.590;2023-12-20T02:10:35;7.00;99.90
29849;DHT22;16728;50.832;5.590;2023-12-20T02:13:37;7.00;99.90
29849;DHT22;16728;50.832;5.590;2023-12-20T02:16:39;6.90;99.90
29849;DHT22;16728;50.832;5.590;2023-12-20T02:19:41;6.90;99.90
29849;DHT22;16728;50.832;5.590;2023-12-20T02:22:43;6.80;99.90
29849;DHT22;16728;50.832;5.590;2023-12-20T02:25:45;6.90;99.90
29849;DHT22;16728;50.832;5.590;2023-12-20T02:28:47;6.80;99.90
29849;DHT22;16728;50.832;5.590;2023-12-20T02:31:48;6.80;99.90
29849;DHT22;16728;50.832;5.590;2023-12-20T02:34:50;6.80;99.90
29849;DHT22;16728;50.832;5.590;2023-12-20T02:37:52;6.80;99.90
29849;DHT22;16728;50.832;5.590;2023-12-20T02:40:54;6.80;99.90
29849;DHT22;16728;50.832;5.590;2023-12-20T02:43:56;6.80;99.90
29849;DHT22;16728;50.832;5.590;2023-12-20T02:46:58;6.70;99.90
29849;DHT22;16728;50.832;5.590;2023-12-20T02:50:00;6.70;99.90
29849;DHT22;16728;50.832;5.590;2023-12-20T02:53:03;6.70;99.90
29849;DHT22;16728;50.832;5.590;2023-12-20T02:56:05;6.60;99.90
29849;DHT22;16728;50.832;5.590;2023-12-20T02:59:08;6.60;99.90
29849;DHT22;16728;50.832;5.590;2023-12-20T03:02:12;6.60;99.90
29849;DHT22;16728;50.832;5.590;2023-12-20T03:05:14;6.60;99.90
29849;DHT22;16728;50.832;5.590;2023-12-20T03:08:16;6.60;99.90
29849;DHT22;16728;50.832;5.590;2023-12-20T03:11:18;6.50;99.90
29849;DHT22;16728;50.832;5.590;2023-12-20T03:14:20;6.50;99.90
29849;DHT22;16728;50.832;5.590;2023-12-20T03:17:34;6.50;99.90
29849;DHT22;16728;50.832;5.590;2023-12-20T03:20:36;6.50;99.90
29849;DHT22;16728;50.832;5.590;2023-12-20T03:23:38;6.50;99.90
29849;DHT22;16728;50.832;5.590;2023-12-20T03:26:39;6.50;99.90
29849;DHT22;16728;50.832;5.590;2023-12-20T03:29:41;6.50;99.90
29849;DHT22;16728;50.832;5.590;2023-12-20T03:32:44;6.50;99.90
29849;DHT22;16728;50.832;5.590;2023-12-20T03:35:45;6.50;99.90
29849;DHT22;16728;50.832;5.590;2023-12-20T03:38:47;6.50;99.90
29849;DHT22;16728;50.832;5.590;2023-12-20T03:41:49;6.50;99.90
29849;DHT22;16728;50.832;5.590;2023-12-20T03:44:51;6.50;99.90
29849;DHT22;16728;50.832;5.590;2023-12-20T03:47:53;6.50;99.90
29849;DHT22;16728;50.832;5.590;2023-12-20T03:50:57;6.50;99.90
29849;DHT22;16728;50.832;5.590;2023-12-20T03:53:59;6.50;99.90
29849;DHT22;16728;50.832;5.590;2023-12-20T03:57:01;6.50;99.90
29849;DHT22;16728;50.832;5.590;2023-12-20T04:00:03;6.40;99.90
29849;DHT22;16728;50.832;5.590;2023-12-20T04:03:05;6.50;99.90
29849;DHT22;16728;50.832;5.590;2023-12-20T04:06:07;6.60;99.90
29849;DHT22;16728;50.832;5.590;2023-12-20T04:09:09;6.50;99.90
29849;DHT22;16728;50.832;5.590;2023-12-20T04:12:11;6.60;99.90
29849;DHT22;16728;50.832;5.590;2023-12-20T04:15:13;6.60;99.90
29849;DHT22;16728;50.832;5.590;2023-12-20T04:18:15;6.60;99.90
29849;DHT22;16728;50.832;5.590;2023-12-20T04:21:17;6.60;99.90
29849;DHT22;16728;50.832;5.590;2023-12-20T04:24:19;6.60;99.90
29849;DHT22;16728;50.832;5.590;2023-12-20T04:27:21;6.60;99.90
29849;DHT22;16728;50.832;5.590;2023-12-20T04:30:23;6.60;99.90
29849;DHT22;16728;50.832;5.590;2023-12-20T04:33:25;6.60;99.90
29849;DHT22;16728;50.832;5.590;2023-12-20T04:36:27;6.60;99.90
29849;DHT22;16728;50.832;5.590;2023-12-20T04:39:31;6.60;99.90
29849;DHT22;16728;50.832;5.590;2023-12-20T04:42:33;6.60;99.90
29849;DHT22;16728;50.832;5.590;2023-12-20T04:45:35;6.60;99.90
29849;DHT22;16728;50.832;5.590;2023-12-20T04:48:37;6.60;99.90
29849;DHT22;16728;50.832;5.590;2023-12-20T04:51:39;6.70;99.90
29849;DHT22;16728;50.832;5.590;2023-12-20T04:54:41;6.60;99.90
29849;DHT22;16728;50.832;5.590;2023-12-20T04:57:45;6.70;99.90
29849;DHT22;16728;50.832;5.590;2023-12-20T05:00:48;6.60;99.90
29849;DHT22;16728;50.832;5.590;2023-12-20T05:03:50;6.60;99.90
29849;DHT22;16728;50.832;5.590;2023-12-20T05:06:52;6.60;99.90
29849;DHT22;16728;50.832;5.590;2023-12-20T05:09:54;6.60;99.90
29849;DHT22;16728;50.832;5.590;2023-12-20T05:12:56;6.70;99.90
29849;DHT22;16728;50.832;5.590;2023-12-20T05:15:58;6.60;99.90
29849;DHT22;16728;50.832;5.590;2023-12-20T05:19:00;6.60;99.90
29849;DHT22;16728;50.832;5.590;2023-12-20T05:22:04;6.60;99.90
29849;DHT22;16728;50.832;5.590;2023-12-20T05:25:06;6.60;99.90
29849;DHT22;16728;50.832;5.590;2023-12-20T05:28:08;6.60;99.90
29849;DHT22;16728;50.832;5.590;2023-12-20T05:31:10;6.60;99.90
29849;DHT22;16728;50.832;5.590;2023-12-20T05:34:12;6.60;99.90
29849;DHT22;16728;50.832;5.590;2023-12-20T05:37:14;6.60;99.90
29849;DHT22;16728;50.832;5.590;2023-12-20T05:40:16;6.60;99.90
29849;DHT22;16728;50.832;5.590;2023-12-20T05:43:18;6.50;99.90
29849;DHT22;16728;50.832;5.590;2023-12-20T05:46:20;6.50;99.90
29849;DHT22;16728;50.832;5.590;2023-12-20T05:49:23;6.60;99.90
29849;DHT22;16728;50.832;5.590;2023-12-20T05:52:25;6.50;99.90
29849;DHT22;16728;50.832;5.590;2023-12-20T05:55:27;6.50;99.90
29849;DHT22;16728;50.832;5.590;2023-12-20T05:58:29;6.50;99.90
29849;DHT22;16728;50.832;5.590;2023-12-20T06:01:31;6.50;99.90
29849;DHT22;16728;50.832;5.590;2023-12-20T06:04:33;6.50;99.90
29849;DHT22;16728;50.832;5.590;2023-12-20T06:07:35;6.50;99.90
29849;DHT22;16728;50.832;5.590;2023-12-20T06:10:37;6.40;99.90
29849;DHT22;16728;50.832;5.590;2023-12-20T06:13:39;6.50;99.90
29849;DHT22;16728;50.832;5.590;2023-12-20T06:16:41;6.40;99.90
29849;DHT22;16728;50.832;5.590;2023-12-20T06:19:43;6.30;99.90
29849;DHT22;16728;50.832;5.590;2023-12-20T06:22:47;6.30;99.90
29849;DHT22;16728;50.832;5.590;2023-12-20T06:25:48;6.30;99.90
29849;DHT22;16728;50.832;5.590;2023-12-20T06:28:50;6.20;99.90
29849;DHT22;16728;50.832;5.590;2023-12-20T06:31:52;6.20;99.90
29849;DHT22;16728;50.832;5.590;2023-12-20T06:34:54;6.20;99.90
29849;DHT22;16728;50.832;5.590;2023-12-20T06:37:56;6.20;99.90
29849;DHT22;16728;50.832;5.590;2023-12-20T06:40:58;6.20;99.90
29849;DHT22;16728;50.832;5.590;2023-12-20T06:44:01;6.20;99.90
29849;DHT22;16728;50.832;5.590;2023-12-20T06:47:03;6.20;99.90
29849;DHT22;16728;50.832;5.590;2023-12-20T06:50:05;6.20;99.90
29849;DHT22;16728;50.832;5.590;2023-12-20T06:53:08;6.20;99.90
29849;DHT22;16728;50.832;5.590;2023-12-20T06:56:11;6.10;99.90
29849;DHT22;16728;50.832;5.590;2023-12-20T06:59:19;6.20;99.90
29849;DHT22;16728;50.832;5.590;2023-12-20T07:02:40;6.10;99.90
29849;DHT22;16728;50.832;5.590;2023-12-20T07:05:42;6.20;99.90
29849;DHT22;16728;50.832;5.590;2023-12-20T07:08:57;6.20;99.90
29849;DHT22;16728;50.832;5.590;2023-12-20T07:11:59;6.20;99.90
29849;DHT22;16728;50.832;5.590;2023-12-20T07:15:01;6.20;99.90
29849;DHT22;16728;50.832;5.590;2023-12-20T07:18:04;6.20;99.90
29849;DHT22;16728;50.832;5.590;2023-12-20T07:21:07;6.20;99.90
29849;DHT22;16728;50.832;5.590;2023-12-20T07:24:11;6.20;99.90
29849;DHT22;16728;50.832;5.590;2023-12-20T07:27:12;6.30;99.90
29849;DHT22;16728;50.832;5.590;2023-12-20T07:30:15;6.20;99.90
29849;DHT22;16728;50.832;5.590;2023-12-20T07:33:17;6.20;99.90
29849;DHT22;16728;50.832;5.590;2023-12-20T07:36:20;6.20;99.90
29849;DHT22;16728;50.832;5.590;2023-12-20T07:39:23;6.20;99.90
29849;DHT22;16728;50.832;5.590;2023-12-20T07:42:25;6.10;99.90
29849;DHT22;16728;50.832;5.590;2023-12-20T07:45:26;6.10;99.90
29849;DHT22;16728;50.832;5.590;2023-12-20T07:48:28;6.10;99.90
29849;DHT22;16728;50.832;5.590;2023-12-20T07:51:30;6.10;99.90
29849;DHT22;16728;50.832;5.590;2023-12-20T07:54:32;6.10;99.90
29849;DHT22;16728;50.832;5.590;2023-12-20T07:57:35;6.10;99.90
29849;DHT22;16728;50.832;5.590;2023-12-20T08:00:37;6.10;99.90
29849;DHT22;16728;50.832;5.590;2023-12-20T08:03:49;6.10;99.90
29849;DHT22;16728;50.832;5.590;2023-12-20T08:06:52;6.10;99.90
29849;DHT22;16728;50.832;5.590;2023-12-20T08:09:54;6.10;99.90
29849;DHT22;16728;50.832;5.590;2023-12-20T08:12:58;6.10;99.90
29849;DHT22;16728;50.832;5.590;2023-12-20T08:16:00;6.10;99.90
29849;DHT22;16728;50.832;5.590;2023-12-20T08:19:06;6.10;99.90
29849;DHT22;16728;50.832;5.590;2023-12-20T08:22:09;6.10;99.90
29849;DHT22;16728;50.832;5.590;2023-12-20T08:25:13;6.10;99.90
29849;DHT22;16728;50.832;5.590;2023-12-20T08:28:17;6.10;99.90
29849;DHT22;16728;50.832;5.590;2023-12-20T08:31:19;6.10;99.90
29849;DHT22;16728;50.832;5.590;2023-12-20T08:34:21;6.10;99.90
29849;DHT22;16728;50.832;5.590;2023-12-20T08:37:23;6.20;99.90
29849;DHT22;16728;50.832;5.590;2023-12-20T08:40:25;6.20;99.90
29849;DHT22;16728;50.832;5.590;2023-12-20T08:43:36;6.20;99.90
29849;DHT22;16728;50.832;5.590;2023-12-20T08:46:38;6.20;99.90
29849;DHT22;16728;50.832;5.590;2023-12-20T08:49:40;6.20;99.90
29849;DHT22;16728;50.832;5.590;2023-12-20T08:52:42;6.40;99.90
29849;DHT22;16728;50.832;5.590;2023-12-20T08:55:44;6.40;99.90
29849;DHT22;16728;50.832;5.590;2023-12-20T08:58:48;6.40;99.90
29849;DHT22;16728;50.832;5.590;2023-12-20T09:01:50;6.50;99.90
29849;DHT22;16728;50.832;5.590;2023-12-20T09:04:56;6.40;99.90
29849;DHT22;16728;50.832;5.590;2023-12-20T09:07:58;6.50;99.90
29849;DHT22;16728;50.832;5.590;2023-12-20T09:11:00;6.50;99.90
29849;DHT22;16728;50.832;5.590;2023-12-20T09:14:02;6.50;99.90
29849;DHT22;16728;50.832;5.590;2023-12-20T09:17:05;6.50;99.90
29849;DHT22;16728;50.832;5.590;2023-12-20T09:20:10;6.50;99.90
29849;DHT22;16728;50.832;5.590;2023-12-20T09:23:12;6.50;99.90
29849;DHT22;16728;50.832;5.590;2023-12-20T09:26:18;6.50;99.90
29849;DHT22;16728;50.832;5.590;2023-12-20T09:29:29;6.50;99.90
29849;DHT22;16728;50.832;5.590;2023-12-20T09:32:31;6.50;99.90
29849;DHT22;16728;50.832;5.590;2023-12-20T09:35:33;6.50;99.90
29849;DHT22;16728;50.832;5.590;2023-12-20T09:38:35;6.60;99.90
29849;DHT22;16728;50.832;5.590;2023-12-20T09:41:42;6.50;99.90
29849;DHT22;16728;50.832;5.590;2023-12-20T09:44:45;6.50;99.90
29849;DHT22;16728;50.832;5.590;2023-12-20T09:47:50;6.60;99.90
29849;DHT22;16728;50.832;5.590;2023-12-20T09:50:52;6.60;99.90
29849;DHT22;16728;50.832;5.590;2023-12-20T09:53:56;6.70;99.90
29849;DHT22;16728;50.832;5.590;2023-12-20T09:56:58;6.70;99.90
29849;DHT22;16728;50.832;5.590;2023-12-20T10:00:01;6.70;99.90
29849;DHT22;16728;50.832;5.590;2023-12-20T10:03:03;6.80;99.90
29849;DHT22;16728;50.832;5.590;2023-12-20T10:06:07;6.80;99.90
29849;DHT22;16728;50.832;5.590;2023-12-20T10:09:11;6.90;99.90
29849;DHT22;16728;50.832;5.590;2023-12-20T10:12:13;6.90;99.90
29849;DHT22;16728;50.832;5.590;2023-12-20T10:15:15;7.10;99.90
29849;DHT22;16728;50.832;5.590;2023-12-20T10:18:17;7.10;99.90
29849;DHT22;16728;50.832;5.590;2023-12-20T10:21:19;7.20;99.90
29849;DHT22;16728;50.832;5.590;2023-12-20T10:24:21;7.30;99.90
29849;DHT22;16728;50.832;5.590;2023-12-20T10:27:26;7.30;99.90
29849;DHT22;16728;50.832;5.590;2023-12-20T10:30:27;7.40;99.90
29849;DHT22;16728;50.832;5.590;2023-12-20T10:33:31;7.50;99.90
29849;DHT22;16728;50.832;5.590;2023-12-20T10:36:34;7.50;99.90
29849;DHT22;16728;50.832;5.590;2023-12-20T10:39:37;7.60;99.90
29849;DHT22;16728;50.832;5.590;2023-12-20T10:42:40;7.70;99.90
29849;DHT22;16728;50.832;5.590;2023-12-20T10:45:42;7.60;99.90
29849;DHT22;16728;50.832;5.590;2023-12-20T10:48:48;7.50;99.90
29849;DHT22;16728;50.832;5.590;2023-12-20T10:51:54;7.50;99.90
29849;DHT22;16728;50.832;5.590;2023-12-20T10:54:59;7.50;99.90
29849;DHT22;16728;50.832;5.590;2023-12-20T10:58:06;7.40;99.90
29849;DHT22;16728;50.832;5.590;2023-12-20T11:01:08;7.50;99.90
29849;DHT22;16728;50.832;5.590;2023-12-20T11:04:20;7.50;99.90
29849;DHT22;16728;50.832;5.590;2023-12-20T11:07:36;7.40;99.90
29849;DHT22;16728;50.832;5.590;2023-12-20T11:13:59;7.50;99.90
29849;DHT22;16728;50.832;5.590;2023-12-20T11:17:12;7.50;99.90
29849;DHT22;16728;50.832;5.590;2023-12-20T11:20:18;7.40;99.90
29849;DHT22;16728;50.832;5.590;2023-12-20T11:23:27;7.50;99.90
29849;DHT22;16728;50.832;5.590;2023-12-20T11:26:29;7.50;99.90
29849;DHT22;16728;50.832;5.590;2023-12-20T11:29:35;7.40;99.90
29849;DHT22;16728;50.832;5.590;2023-12-20T11:32:46;7.40;99.90
29849;DHT22;16728;50.832;5.590;2023-12-20T11:35:48;7.40;99.90
29849;DHT22;16728;50.832;5.590;2023-12-20T11:38:57;7.50;99.90
29849;DHT22;16728;50.832;5.590;2023-12-20T11:42:04;7.50;99.90
29849;DHT22;16728;50.832;5.590;2023-12-20T11:45:27;7.40;99.90
29849;DHT22;16728;50.832;5.590;2023-12-20T11:48:35;7.40;99.90
29849;DHT22;16728;50.832;5.590;2023-12-20T11:51:43;7.40;99.90
29849;DHT22;16728;50.832;5.590;2023-12-20T11:54:51;7.50;99.90
29849;DHT22;16728;50.832;5.590;2023-12-20T11:58:04;7.50;99.90
29849;DHT22;16728;50.832;5.590;2023-12-20T12:01:06;7.50;99.90
29849;DHT22;16728;50.832;5.590;2023-12-20T12:04:10;7.50;99.90
29849;DHT22;16728;50.832;5.590;2023-12-20T12:07:12;7.60;99.90
29849;DHT22;16728;50.832;5.590;2023-12-20T12:13:35;7.60;99.90
29849;DHT22;16728;50.832;5.590;2023-12-20T12:16:37;7.60;99.90
29849;DHT22;16728;50.832;5.590;2023-12-20T12:19:41;7.60;99.90
29849;DHT22;16728;50.832;5.590;2023-12-20T12:23:03;7.60;99.90
29849;DHT22;16728;50.832;5.590;2023-12-20T12:26:06;7.60;99.90
29849;DHT22;16728;50.832;5.590;2023-12-20T12:29:11;7.60;99.90
29849;DHT22;16728;50.832;5.590;2023-12-20T12:32:13;7.60;99.90
29849;DHT22;16728;50.832;5.590;2023-12-20T12:35:23;7.60;99.90
29849;DHT22;16728;50.832;5.590;2023-12-20T12:38:24;7.60;99.90
29849;DHT22;16728;50.832;5.590;2023-12-20T12:41:32;7.70;99.90
29849;DHT22;16728;50.832;5.590;2023-12-20T12:44:34;7.70;99.90
29849;DHT22;16728;50.832;5.590;2023-12-20T12:47:37;7.70;99.90
29849;DHT22;16728;50.832;5.590;2023-12-20T12:50:53;7.70;99.90
29849;DHT22;16728;50.832;5.590;2023-12-20T12:53:56;7.60;99.90
29849;DHT22;16728;50.832;5.590;2023-12-20T12:56:58;7.70;99.90
29849;DHT22;16728;50.832;5.590;2023-12-20T13:00:00;7.60;99.90
29849;DHT22;16728;50.832;5.590;2023-12-20T13:03:02;7.60;99.90
29849;DHT22;16728;50.832;5.590;2023-12-20T13:06:05;7.60;99.90
29849;DHT22;16728;50.832;5.590;2023-12-20T13:09:10;7.60;99.90
29849;DHT22;16728;50.832;5.590;2023-12-20T13:12:12;7.70;99.90
29849;DHT22;16728;50.832;5.590;2023-12-20T13:15:14;7.70;99.90
29849;DHT22;16728;50.832;5.590;2023-12-20T13:18:19;7.70;99.90
29849;DHT22;16728;50.832;5.590;2023-12-20T13:21:21;7.70;99.90
29849;DHT22;16728;50.832;5.590;2023-12-20T13:24:31;7.70;99.90
29849;DHT22;16728;50.832;5.590;2023-12-20T13:27:37;7.70;99.90
29849;DHT22;16728;50.832;5.590;2023-12-20T13:30:39;7.80;99.90
29849;DHT22;16728;50.832;5.590;2023-12-20T13:33:53;7.80;99.90
29849;DHT22;16728;50.832;5.590;2023-12-20T13:36:55;7.80;99.90
29849;DHT22;16728;50.832;5.590;2023-12-20T13:39:58;7.80;99.90
29849;DHT22;16728;50.832;5.590;2023-12-20T13:43:03;7.90;99.90
29849;DHT22;16728;50.832;5.590;2023-12-20T13:46:05;7.80;99.90
29849;DHT22;16728;50.832;5.590;2023-12-20T13:49:07;7.90;99.90
29849;DHT22;16728;50.832;5.590;2023-12-20T13:52:09;7.90;99.90
29849;DHT22;16728;50.832;5.590;2023-12-20T13:55:25;7.90;99.90
29849;DHT22;16728;50.832;5.590;2023-12-20T13:58:30;7.90;99.90
29849;DHT22;16728;50.832;5.590;2023-12-20T14:01:32;7.90;99.90
29849;DHT22;16728;50.832;5.590;2023-12-20T14:04:34;7.80;99.90
29849;DHT22;16728;50.832;5.590;2023-12-20T14:07:44;7.90;99.90
29849;DHT22;16728;50.832;5.590;2023-12-20T14:10:47;7.90;99.90
29849;DHT22;16728;50.832;5.590;2023-12-20T14:13:52;7.90;99.90
29849;DHT22;16728;50.832;5.590;2023-12-20T14:16:54;7.90;99.90
29849;DHT22;16728;50.832;5.590;2023-12-20T14:19:56;7.90;99.90
29849;DHT22;16728;50.832;5.590;2023-12-20T14:22:58;7.90;99.90
29849;DHT22;16728;50.832;5.590;2023-12-20T14:26:00;7.90;99.90
29849;DHT22;16728;50.832;5.590;2023-12-20T14:29:04;7.90;99.90
29849;DHT22;16728;50.832;5.590;2023-12-20T14:32:06;7.90;99.90
29849;DHT22;16728;50.832;5.590;2023-12-20T14:35:17;7.90;99.90
29849;DHT22;16728;50.832;5.590;2023-12-20T14:38:19;7.90;99.90
29849;DHT22;16728;50.832;5.590;2023-12-20T14:41:23;7.90;99.90
29849;DHT22;16728;50.832;5.590;2023-12-20T14:44:26;7.90;99.90
29849;DHT22;16728;50.832;5.590;2023-12-20T14:47:28;7.90;99.90
29849;DHT22;16728;50.832;5.590;2023-12-20T14:50:30;7.90;99.90
29849;DHT22;16728;50.832;5.590;2023-12-20T14:53:32;7.90;99.90
29849;DHT22;16728;50.832;5.590;2023-12-20T14:56:34;7.90;99.90
29849;DHT22;16728;50.832;5.590;2023-12-20T14:59:36;8.00;99.90
29849;DHT22;16728;50.832;5.590;2023-12-20T15:02:38;7.90;99.90
29849;DHT22;16728;50.832;5.590;2023-12-20T15:05:40;7.90;99.90
29849;DHT22;16728;50.832;5.590;2023-12-20T15:08:51;7.90;99.90
29849;DHT22;16728;50.832;5.590;2023-12-20T15:11:54;7.90;99.90
29849;DHT22;16728;50.832;5.590;2023-12-20T15:14:56;7.90;99.90
29849;DHT22;16728;50.832;5.590;2023-12-20T15:17:58;7.90;99.90
29849;DHT22;16728;50.832;5.590;2023-12-20T15:21:00;7.90;99.90
29849;DHT22;16728;50.832;5.590;2023-12-20T15:24:02;7.90;99.90
29849;DHT22;16728;50.832;5.590;2023-12-20T15:27:53;8.00;99.90
29849;DHT22;16728;50.832;5.590;2023-12-20T15:30:58;7.90;99.90
29849;DHT22;16728;50.832;5.590;2023-12-20T15:34:00;7.90;99.90
29849;DHT22;16728;50.832;5.590;2023-12-20T15:37:02;7.90;99.90
29849;DHT22;16728;50.832;5.590;2023-12-20T15:40:08;8.00;99.90
29849;DHT22;16728;50.832;5.590;2023-12-20T15:43:14;8.00;99.90
29849;DHT22;16728;50.832;5.590;2023-12-20T15:46:16;8.00;99.90
29849;DHT22;16728;50.832;5.590;2023-12-20T15:49:18;8.00;99.90
29849;DHT22;16728;50.832;5.590;2023-12-20T15:52:20;8.00;99.90
29849;DHT22;16728;50.832;5.590;2023-12-20T15:55:22;8.00;99.90
29849;DHT22;16728;50.832;5.590;2023-12-20T15:58:24;8.10;99.90
29849;DHT22;16728;50.832;5.590;2023-12-20T16:01:29;8.10;99.90
29849;DHT22;16728;50.832;5.590;2023-12-20T16:04:32;8.10;99.90
29849;DHT22;16728;50.832;5.590;2023-12-20T16:07:34;8.10;99.90
29849;DHT22;16728;50.832;5.590;2023-12-20T16:10:36;8.10;99.90
29849;DHT22;16728;50.832;5.590;2023-12-20T16:13:38;8.10;99.90
29849;DHT22;16728;50.832;5.590;2023-12-20T16:16:40;8.20;99.90
29849;DHT22;16728;50.832;5.590;2023-12-20T16:19:45;8.10;99.90
29849;DHT22;16728;50.832;5.590;2023-12-20T16:22:47;8.20;99.90
29849;DHT22;16728;50.832;5.590;2023-12-20T16:25:49;8.20;99.90
29849;DHT22;16728;50.832;5.590;2023-12-20T16:28:51;8.20;99.90
29849;DHT22;16728;50.832;5.590;2023-12-20T16:31:53;8.20;99.90
29849;DHT22;16728;50.832;5.590;2023-12-20T16:34:55;8.20;99.90
29849;DHT22;16728;50.832;5.590;2023-12-20T16:37:57;8.20;99.90
29849;DHT22;16728;50.832;5.590;2023-12-20T16:40:58;8.20;99.90
29849;DHT22;16728;50.832;5.590;2023-12-20T16:44:00;8.20;99.90
29849;DHT22;16728;50.832;5.590;2023-12-20T16:47:02;8.20;99.90
29849;DHT22;16728;50.832;5.590;2023-12-20T16:50:05;8.20;99.90
29849;DHT22;16728;50.832;5.590;2023-12-20T16:53:08;8.20;99.90
29849;DHT22;16728;50.832;5.590;2023-12-20T16:56:10;8.20;99.90
29849;DHT22;16728;50.832;5.590;2023-12-20T16:59:19;8.20;99.90
29849;DHT22;16728;50.832;5.590;2023-12-20T17:02:21;8.30;99.90
29849;DHT22;16728;50.832;5.590;2023-12-20T17:05:22;8.30;99.90
29849;DHT22;16728;50.832;5.590;2023-12-20T17:08:24;8.30;99.90
29849;DHT22;16728;50.832;5.590;2023-12-20T17:11:26;8.30;99.90
29849;DHT22;16728;50.832;5.590;2023-12-20T17:14:28;8.20;99.90
29849;DHT22;16728;50.832;5.590;2023-12-20T17:17:30;8.20;99.90
29849;DHT22;16728;50.832;5.590;2023-12-20T17:20:32;8.20;99.90
29849;DHT22;16728;50.832;5.590;2023-12-20T17:23:34;8.20;99.90
29849;DHT22;16728;50.832;5.590;2023-12-20T17:26:51;8.30;99.90
29849;DHT22;16728;50.832;5.590;2023-12-20T17:29:53;8.20;99.90
29849;DHT22;16728;50.832;5.590;2023-12-20T17:32:55;8.20;99.90
29849;DHT22;16728;50.832;5.590;2023-12-20T17:35:57;8.30;99.90
29849;DHT22;16728;50.832;5.590;2023-12-20T17:38:59;8.30;99.90
29849;DHT22;16728;50.832;5.590;2023-12-20T17:42:01;8.30;99.90
29849;DHT22;16728;50.832;5.590;2023-12-20T17:45:04;8.30;99.90
29849;DHT22;16728;50.832;5.590;2023-12-20T17:48:06;8.30;99.90
29849;DHT22;16728;50.832;5.590;2023-12-20T17:51:08;8.30;99.90
29849;DHT22;16728;50.832;5.590;2023-12-20T17:54:10;8.30;99.90
29849;DHT22;16728;50.832;5.590;2023-12-20T17:57:12;8.30;99.90
29849;DHT22;16728;50.832;5.590;2023-12-20T18:00:16;8.30;99.90
29849;DHT22;16728;50.832;5.590;2023-12-20T18:03:19;8.30;99.90
29849;DHT22;16728;50.832;5.590;2023-12-20T18:06:21;8.30;99.90
29849;DHT22;16728;50.832;5.590;2023-12-20T18:09:23;8.30;99.90
29849;DHT22;16728;50.832;5.590;2023-12-20T18:12:24;8.30;99.90
29849;DHT22;16728;50.832;5.590;2023-12-20T18:15:26;8.30;99.90
29849;DHT22;16728;50.832;5.590;2023-12-20T18:18:32;8.30;99.90
29849;DHT22;16728;50.832;5.590;2023-12-20T18:21:34;8.30;99.90
29849;DHT22;16728;50.832;5.590;2023-12-20T18:24:36;8.30;99.90
29849;DHT22;16728;50.832;5.590;2023-12-20T18:27:53;8.30;99.90
29849;DHT22;16728;50.832;5.590;2023-12-20T18:30:55;8.30;99.90
29849;DHT22;16728;50.832;5.590;2023-12-20T18:33:57;8.30;99.90
29849;DHT22;16728;50.832;5.590;2023-12-20T18:36:59;8.30;99.90
29849;DHT22;16728;50.832;5.590;2023-12-20T18:40:05;8.30;99.90
29849;DHT22;16728;50.832;5.590;2023-12-20T18:43:09;8.30;99.90
29849;DHT22;16728;50.832;5.590;2023-12-20T18:46:11;8.30;99.90
29849;DHT22;16728;50.832;5.590;2023-12-20T18:52:38;8.30;99.90
29849;DHT22;16728;50.832;5.590;2023-12-20T18:55:40;8.30;99.90
29849;DHT22;16728;50.832;5.590;2023-12-20T18:58:42;8.40;99.90
29849;DHT22;16728;50.832;5.590;2023-12-20T19:01:48;8.40;99.90
29849;DHT22;16728;50.832;5.590;2023-12-20T19:04:59;8.40;99.90
29849;DHT22;16728;50.832;5.590;2023-12-20T19:08:04;8.40;99.90
29849;DHT22;16728;50.832;5.590;2023-12-20T19:11:20;8.40;99.90
29849;DHT22;16728;50.832;5.590;2023-12-20T19:14:22;8.50;99.90
29849;DHT22;16728;50.832;5.590;2023-12-20T19:17:24;8.40;99.90
29849;DHT22;16728;50.832;5.590;2023-12-20T19:20:27;8.50;99.90
29849;DHT22;16728;50.832;5.590;2023-12-20T19:23:29;8.40;99.90
29849;DHT22;16728;50.832;5.590;2023-12-20T19:26:30;8.50;99.90
29849;DHT22;16728;50.832;5.590;2023-12-20T19:29:32;8.50;99.90
29849;DHT22;16728;50.832;5.590;2023-12-20T19:37:25;8.50;99.90
29849;DHT22;16728;50.832;5.590;2023-12-20T19:45:21;8.50;99.90
29849;DHT22;16728;50.832;5.590;2023-12-20T19:48:23;8.50;99.90
29849;DHT22;16728;50.832;5.590;2023-12-20T19:56:01;8.50;99.90
29849;DHT22;16728;50.832;5.590;2023-12-20T19:59:37;8.60;99.90
29849;DHT22;16728;50.832;5.590;2023-12-20T20:02:39;8.50;99.90